»·PEaware :: SKY25 KSBP-KOAR

SKY25 :: KSBP-KOAR

FLIGHT INFORMATION

Flight Status: Arrived
Operator:
Sky High Charters
More flights by this operator :: More flights under this callsign
Pilot: Anonymous 31931 (31931)
Aircraft: BEECH AIRCRAFT SUPER KING AIR 350
(B350)
More flights by this aircraft type
Origin: KSBP San Luis Co Regl
United States
Destination: KOAR Marina
United States
More flights between these airports :: More routes between these airports
Route: +CREPE3 PRB SARDO HAGRO
File this flight plan on PilotEdge
Remarks:
Altitude:
(Current/Filed)
8,000ft
Speed:
(Current/Filed)
240kts
Departed: 21-Nov-20 04:49 PM
Arrived: 21-Nov-20 05:18 PM
Distance/Time
Traveled:
102nm/0:29
Distance/Time
To Go:
Arrived

Flight Plot

Page will automatically refresh every two minutes.

Flight plan parsing failed; only flown route is shown


Map Options




Map Legend


Flown Route
Filed Route
Departure Airport
Arrival Airport
Navaid (VOR, NDB)
Fix

Horizontal Profiles

Position Reports

Time Latitude Longitude Heading Altitude Ground
Speed
21-Nov-20 16:21 35.238386 -120.639800 311 217ft 0kts
21-Nov-20 16:21 35.238386 -120.639800 311 217ft 0kts
21-Nov-20 16:23 35.238386 -120.639800 311 217ft 0kts
21-Nov-20 16:23 35.238386 -120.639800 311 217ft 0kts
21-Nov-20 16:24 35.238386 -120.639800 311 217ft 0kts
21-Nov-20 16:25 35.238386 -120.639800 311 217ft 0kts
21-Nov-20 16:26 35.238386 -120.639800 311 217ft 0kts
21-Nov-20 16:27 35.238386 -120.639800 311 217ft 0kts
21-Nov-20 16:28 35.238386 -120.639800 311 217ft 0kts
21-Nov-20 16:29 35.238386 -120.639800 311 217ft 0kts
21-Nov-20 16:30 35.238386 -120.639800 311 217ft 0kts
21-Nov-20 16:31 35.238386 -120.639800 311 217ft 0kts
21-Nov-20 16:32 35.238386 -120.639800 311 217ft 0kts
21-Nov-20 16:33 35.238386 -120.639800 311 217ft 0kts
21-Nov-20 16:34 35.238386 -120.639800 311 217ft 0kts
21-Nov-20 16:35 35.238386 -120.639800 311 217ft 0kts
21-Nov-20 16:36 35.238386 -120.639800 311 217ft 0kts
21-Nov-20 16:37 35.238386 -120.639800 311 217ft 0kts
21-Nov-20 16:38 35.238386 -120.639800 311 217ft 0kts
21-Nov-20 16:39 35.238386 -120.639800 311 217ft 0kts
21-Nov-20 16:40 35.238386 -120.639800 311 217ft 0kts
21-Nov-20 16:41 35.238409 -120.639943 254 217ft 4kts
21-Nov-20 16:42 35.236052 -120.636850 125 217ft 21kts
21-Nov-20 16:43 35.233443 -120.632365 160 217ft 13kts
21-Nov-20 16:44 35.233248 -120.632347 183 217ft 0kts
21-Nov-20 16:45 35.233247 -120.632347 183 217ft 0kts
21-Nov-20 16:46 35.233247 -120.632347 183 217ft 0kts
21-Nov-20 16:47 35.232930 -120.633301 303 217ft 0kts
21-Nov-20 16:48 35.245599 -120.654294 304 755ft 144kts
21-Nov-20 16:49 35.270438 -120.700709 305 2579ft 169kts
21-Nov-20 16:50 35.298087 -120.748643 301 4545ft 175kts
21-Nov-20 16:51 35.326335 -120.798078 305 6393ft 177kts
21-Nov-20 16:52 35.358835 -120.842311 345 8013ft 187kts
21-Nov-20 16:53 35.418163 -120.818813 24 8009ft 254kts
21-Nov-20 16:54 35.482475 -120.773985 29 7988ft 274kts
21-Nov-20 16:55 35.549010 -120.723253 33 8002ft 286kts
21-Nov-20 16:56 35.617007 -120.670404 33 8000ft 290kts
21-Nov-20 16:57 35.689423 -120.631953 348 7999ft 291kts
21-Nov-20 16:58 35.765667 -120.664201 341 8000ft 291kts
21-Nov-20 16:59 35.843884 -120.695447 341 8000ft 291kts
21-Nov-20 17:00 35.920942 -120.726304 341 8000ft 291kts
21-Nov-20 17:01 35.998029 -120.757235 341 8001ft 289kts
21-Nov-20 17:02 36.074587 -120.788035 340 8001ft 290kts
21-Nov-20 17:03 36.129857 -120.857436 307 7999ft 287kts
21-Nov-20 17:04 36.180364 -120.934223 307 7998ft 287kts
21-Nov-20 17:05 36.230798 -121.010930 307 8002ft 286kts
21-Nov-20 17:06 36.281847 -121.088750 307 8008ft 284kts
21-Nov-20 17:07 36.332307 -121.165848 308 8014ft 281kts
21-Nov-20 17:08 36.381611 -121.241336 308 8017ft 280kts
21-Nov-20 17:09 36.430658 -121.316666 308 8007ft 280kts
21-Nov-20 17:10 36.478330 -121.389987 308 7308ft 254kts
21-Nov-20 17:11 36.520126 -121.454418 308 5764ft 229kts
21-Nov-20 17:12 36.565218 -121.507175 319 4253ft 217kts
21-Nov-20 17:13 36.600357 -121.565959 285 3766ft 217kts
21-Nov-20 17:14 36.619363 -121.632206 297 2858ft 203kts
21-Nov-20 17:15 36.646631 -121.694351 311 1235ft 188kts
21-Nov-20 17:16 36.669665 -121.739131 306 443ft 115kts
21-Nov-20 17:17 36.681156 -121.762970 216 136ft 23kts
21-Nov-20 17:18 36.680410 -121.764514 120 139ft 0kts
21-Nov-20 17:19 36.680410 -121.764514 120 139ft 0kts
21-Nov-20 17:20 36.680410 -121.764514 120 139ft 0kts
21-Nov-20 17:21 36.680410 -121.764514 120 139ft 0kts
21-Nov-20 17:22 36.680410 -121.764514 120 139ft 0kts
21-Nov-20 17:23 36.680410 -121.764514 120 139ft 0kts
21-Nov-20 17:24 36.680410 -121.764514 120 139ft 0kts
21-Nov-20 17:25 36.680410 -121.764514 120 139ft 0kts

Navigation Log

Ident Type
Flight plan parsing failed, navigation log unavailable